Hovedside
METAR-TAF:

METAR-TAF

Lufthavner :

Aarhus lufthavn

Aarhus, Danmark

breddegrad: 56-18N, lengdegrad: 010-37E, høyde over havet: 23 m

Gjeldene værobservasjon

Denne rapporten ble laget for 17 minutter siden, klokken 01:20 UTC
Vind 10 kt fra Nord-nordvest med vindkast opp mot 21 kt, skiftende mellom Nordvest og Nord-nordøst
Temperatur 6°C
Luftfuktighet 70%
Trykk 1011 hPa
Sikt 10 km eller mer

METAR: EKAH 110120Z AUTO 34010G21KT 310V030 9999NDV OVC026/// 06/01 Q1011

Tid: 02:37 (01:37 UTC)

Varsel

Denne rapporten ble laget for 2 timer og 28 minutter siden, klokken 23:09 UTC
Varsel gyldig fra 11. klokken 00 UTC til 11. klokken 24 UTC
Vind 10 kt fra Nord
Sikt 10 km eller mer
Spredte skyer i en høyde av 2000 ft

TAF: EKAH 102309Z 1100/1124 36010KT 9999 SCT020

Værobservasjoner og værvarsel for over 4000 flyplasser (METAR- og TAF-rapporter).

Tilgjengelige stasjoner er representert av de røde og gule prikkene på kartet.

Hold musepekeren over prikken for å se navnet på stasjonen.

Klikk så for å se værobservasjoner og -varsler.

For å forandre kartet kan du klikke på den grønne knappen med svart kryss for å zoome inn, på den grønne knappen med strek for å zoome ut, eller på de grønne pilene for å se tilstøtende kart.


METAR-TAF: